sensor_id;sensor_type;location;lat;lon;timestamp;pressure;altitude;pressure_sealevel;temperature;humidity
3917;BME280;1973;50.518;7.318;2023-05-20T00:00:32;101463.56;;;12.33;100.00
3917;BME280;1973;50.518;7.318;2023-05-20T00:02:59;101468.88;;;12.28;100.00
3917;BME280;1973;50.518;7.318;2023-05-20T00:05:26;101468.25;;;12.26;100.00
3917;BME280;1973;50.518;7.318;2023-05-20T00:07:52;101466.97;;;12.22;100.00
3917;BME280;1973;50.518;7.318;2023-05-20T00:10:19;101466.09;;;12.14;100.00
3917;BME280;1973;50.518;7.318;2023-05-20T00:12:45;101452.50;;;12.13;100.00
3917;BME280;1973;50.518;7.318;2023-05-20T00:15:12;101459.28;;;12.10;100.00
3917;BME280;1973;50.518;7.318;2023-05-20T00:17:38;101455.44;;;12.05;100.00
3917;BME280;1973;50.518;7.318;2023-05-20T00:20:05;101453.13;;;12.02;100.00
3917;BME280;1973;50.518;7.318;2023-05-20T00:22:32;101460.97;;;11.98;100.00
3917;BME280;1973;50.518;7.318;2023-05-20T00:24:59;101461.81;;;11.92;100.00
3917;BME280;1973;50.518;7.318;2023-05-20T00:27:25;101451.59;;;11.86;100.00
3917;BME280;1973;50.518;7.318;2023-05-20T00:29:52;101443.09;;;11.81;100.00
3917;BME280;1973;50.518;7.318;2023-05-20T00:32:18;101456.22;;;11.79;100.00
3917;BME280;1973;50.518;7.318;2023-05-20T00:34:54;101455.59;;;11.77;100.00
3917;BME280;1973;50.518;7.318;2023-05-20T00:37:21;101453.47;;;11.73;100.00
3917;BME280;1973;50.518;7.318;2023-05-20T00:39:48;101454.03;;;11.68;100.00
3917;BME280;1973;50.518;7.318;2023-05-20T00:42:21;101451.69;;;11.65;100.00
3917;BME280;1973;50.518;7.318;2023-05-20T00:44:48;101448.09;;;11.64;100.00
3917;BME280;1973;50.518;7.318;2023-05-20T00:47:19;101447.66;;;11.61;100.00
3917;BME280;1973;50.518;7.318;2023-05-20T00:49:48;101444.69;;;11.56;100.00
3917;BME280;1973;50.518;7.318;2023-05-20T00:52:19;101446.78;;;11.54;100.00
3917;BME280;1973;50.518;7.318;2023-05-20T00:54:46;101444.84;;;11.48;100.00
3917;BME280;1973;50.518;7.318;2023-05-20T00:57:13;101446.31;;;11.44;100.00
3917;BME280;1973;50.518;7.318;2023-05-20T00:59:40;101433.56;;;11.43;100.00
3917;BME280;1973;50.518;7.318;2023-05-20T01:02:10;101445.03;;;11.40;100.00
3917;BME280;1973;50.518;7.318;2023-05-20T01:04:36;101436.31;;;11.36;100.00
3917;BME280;1973;50.518;7.318;2023-05-20T01:07:04;101451.38;;;11.34;100.00
3917;BME280;1973;50.518;7.318;2023-05-20T01:09:32;101436.28;;;11.30;100.00
3917;BME280;1973;50.518;7.318;2023-05-20T01:14:36;101442.41;;;11.25;100.00
3917;BME280;1973;50.518;7.318;2023-05-20T01:17:06;101439.22;;;11.21;100.00
3917;BME280;1973;50.518;7.318;2023-05-20T01:22:12;101424.53;;;11.14;100.00
3917;BME280;1973;50.518;7.318;2023-05-20T01:24:40;101430.25;;;11.13;100.00
3917;BME280;1973;50.518;7.318;2023-05-20T01:27:11;101430.47;;;11.11;100.00
3917;BME280;1973;50.518;7.318;2023-05-20T01:29:39;101427.06;;;11.09;100.00
3917;BME280;1973;50.518;7.318;2023-05-20T01:32:13;101429.81;;;11.09;100.00
3917;BME280;1973;50.518;7.318;2023-05-20T01:34:41;101425.75;;;11.05;100.00
3917;BME280;1973;50.518;7.318;2023-05-20T01:37:09;101433.38;;;11.03;100.00
3917;BME280;1973;50.518;7.318;2023-05-20T01:39:38;101428.91;;;11.02;100.00
3917;BME280;1973;50.518;7.318;2023-05-20T01:42:08;101432.09;;;10.99;100.00
3917;BME280;1973;50.518;7.318;2023-05-20T01:44:36;101427.00;;;10.96;100.00
3917;BME280;1973;50.518;7.318;2023-05-20T01:47:02;101420.19;;;10.92;100.00
3917;BME280;1973;50.518;7.318;2023-05-20T01:49:29;101419.31;;;10.92;100.00
3917;BME280;1973;50.518;7.318;2023-05-20T01:51:56;101428.84;;;10.89;100.00
3917;BME280;1973;50.518;7.318;2023-05-20T01:54:22;101418.88;;;10.88;100.00
3917;BME280;1973;50.518;7.318;2023-05-20T01:56:49;101422.50;;;10.89;100.00
3917;BME280;1973;50.518;7.318;2023-05-20T01:59:16;101427.09;;;10.82;100.00
3917;BME280;1973;50.518;7.318;2023-05-20T02:01:42;101433.66;;;10.81;100.00
3917;BME280;1973;50.518;7.318;2023-05-20T02:04:09;101422.19;;;10.77;100.00
3917;BME280;1973;50.518;7.318;2023-05-20T02:06:35;101421.56;;;10.75;100.00
3917;BME280;1973;50.518;7.318;2023-05-20T02:09:02;101420.03;;;10.72;100.00
3917;BME280;1973;50.518;7.318;2023-05-20T02:11:29;101420.44;;;10.69;100.00
3917;BME280;1973;50.518;7.318;2023-05-20T02:13:55;101428.06;;;10.67;100.00
3917;BME280;1973;50.518;7.318;2023-05-20T02:16:22;101437.56;;;10.65;100.00
3917;BME280;1973;50.518;7.318;2023-05-20T02:18:49;101432.47;;;10.62;100.00
3917;BME280;1973;50.518;7.318;2023-05-20T02:21:18;101419.97;;;10.59;100.00
3917;BME280;1973;50.518;7.318;2023-05-20T02:23:44;101437.72;;;10.57;100.00
3917;BME280;1973;50.518;7.318;2023-05-20T02:26:11;101424.16;;;10.55;100.00
3917;BME280;1973;50.518;7.318;2023-05-20T02:28:38;101429.00;;;10.53;100.00
3917;BME280;1973;50.518;7.318;2023-05-20T02:31:08;101425.78;;;10.50;100.00
3917;BME280;1973;50.518;7.318;2023-05-20T02:33:35;101428.75;;;10.48;100.00
3917;BME280;1973;50.518;7.318;2023-05-20T02:36:01;101422.81;;;10.45;100.00
3917;BME280;1973;50.518;7.318;2023-05-20T02:38:28;101423.22;;;10.42;100.00
3917;BME280;1973;50.518;7.318;2023-05-20T02:40:57;101425.31;;;10.40;100.00
3917;BME280;1973;50.518;7.318;2023-05-20T02:43:25;101414.50;;;10.38;100.00
3917;BME280;1973;50.518;7.318;2023-05-20T02:45:51;101418.09;;;10.39;100.00
3917;BME280;1973;50.518;7.318;2023-05-20T02:48:18;101418.50;;;10.36;100.00
3917;BME280;1973;50.518;7.318;2023-05-20T02:50:45;101416.81;;;10.35;100.00
3917;BME280;1973;50.518;7.318;2023-05-20T02:53:12;101409.59;;;10.34;100.00
3917;BME280;1973;50.518;7.318;2023-05-20T02:55:39;101409.78;;;10.32;100.00
3917;BME280;1973;50.518;7.318;2023-05-20T02:58:06;101426.50;;;10.31;100.00
3917;BME280;1973;50.518;7.318;2023-05-20T03:00:32;101409.31;;;10.29;100.00
3917;BME280;1973;50.518;7.318;2023-05-20T03:03:06;101408.03;;;10.24;100.00
3917;BME280;1973;50.518;7.318;2023-05-20T03:05:33;101419.25;;;10.23;100.00
3917;BME280;1973;50.518;7.318;2023-05-20T03:08:09;101411.34;;;10.20;100.00
3917;BME280;1973;50.518;7.318;2023-05-20T03:10:39;101415.38;;;10.17;100.00
3917;BME280;1973;50.518;7.318;2023-05-20T03:13:06;101416.63;;;10.15;100.00
3917;BME280;1973;50.518;7.318;2023-05-20T03:15:34;101415.91;;;10.13;100.00
3917;BME280;1973;50.518;7.318;2023-05-20T03:18:02;101412.72;;;10.09;100.00
3917;BME280;1973;50.518;7.318;2023-05-20T03:20:29;101423.94;;;10.08;100.00
3917;BME280;1973;50.518;7.318;2023-05-20T03:22:55;101415.88;;;10.06;100.00
3917;BME280;1973;50.518;7.318;2023-05-20T03:25:23;101417.53;;;10.01;100.00
3917;BME280;1973;50.518;7.318;2023-05-20T03:27:49;101420.44;;;9.99;100.00
3917;BME280;1973;50.518;7.318;2023-05-20T03:30:16;101419.59;;;9.99;100.00
3917;BME280;1973;50.518;7.318;2023-05-20T03:32:43;101427.66;;;10.00;100.00
3917;BME280;1973;50.518;7.318;2023-05-20T03:35:10;101424.91;;;10.00;100.00
3917;BME280;1973;50.518;7.318;2023-05-20T03:37:36;101422.81;;;10.02;100.00
3917;BME280;1973;50.518;7.318;2023-05-20T03:40:03;101418.56;;;10.00;100.00
3917;BME280;1973;50.518;7.318;2023-05-20T03:42:33;101430.41;;;10.00;100.00
3917;BME280;1973;50.518;7.318;2023-05-20T03:44:59;101425.94;;;9.99;100.00
3917;BME280;1973;50.518;7.318;2023-05-20T03:47:27;101415.81;;;10.00;100.00
3917;BME280;1973;50.518;7.318;2023-05-20T03:49:54;101412.88;;;10.01;100.00
3917;BME280;1973;50.518;7.318;2023-05-20T03:52:20;101406.31;;;10.02;100.00
3917;BME280;1973;50.518;7.318;2023-05-20T03:54:47;101408.41;;;10.00;100.00
3917;BME280;1973;50.518;7.318;2023-05-20T03:57:13;101405.44;;;10.02;100.00
3917;BME280;1973;50.518;7.318;2023-05-20T03:59:40;101409.06;;;10.02;100.00
3917;BME280;1973;50.518;7.318;2023-05-20T04:02:07;101412.66;;;10.03;100.00
3917;BME280;1973;50.518;7.318;2023-05-20T04:04:34;101412.19;;;9.99;100.00
3917;BME280;1973;50.518;7.318;2023-05-20T04:07:01;101416.00;;;9.98;100.00
3917;BME280;1973;50.518;7.318;2023-05-20T04:09:30;101414.31;;;9.97;100.00
3917;BME280;1973;50.518;7.318;2023-05-20T04:11:57;101417.06;;;9.97;100.00
3917;BME280;1973;50.518;7.318;2023-05-20T04:14:23;101410.25;;;9.93;100.00
3917;BME280;1973;50.518;7.318;2023-05-20T04:16:50;101422.94;;;9.94;100.00
3917;BME280;1973;50.518;7.318;2023-05-20T04:19:17;101418.50;;;9.93;100.00
3917;BME280;1973;50.518;7.318;2023-05-20T04:21:49;101426.53;;;9.95;100.00
3917;BME280;1973;50.518;7.318;2023-05-20T04:24:16;101419.13;;;9.95;100.00
3917;BME280;1973;50.518;7.318;2023-05-20T04:26:42;101413.91;;;10.00;100.00
3917;BME280;1973;50.518;7.318;2023-05-20T04:29:09;101426.81;;;10.00;100.00
3917;BME280;1973;50.518;7.318;2023-05-20T04:31:37;101418.81;;;10.05;100.00
3917;BME280;1973;50.518;7.318;2023-05-20T04:34:03;101416.53;;;10.08;100.00
3917;BME280;1973;50.518;7.318;2023-05-20T04:36:30;101409.78;;;10.11;100.00
3917;BME280;1973;50.518;7.318;2023-05-20T04:38:56;101411.97;;;10.15;100.00
3917;BME280;1973;50.518;7.318;2023-05-20T04:41:23;101416.03;;;10.19;100.00
3917;BME280;1973;50.518;7.318;2023-05-20T04:43:49;101419.69;;;10.27;100.00
3917;BME280;1973;50.518;7.318;2023-05-20T04:46:16;101415.50;;;10.31;100.00
3917;BME280;1973;50.518;7.318;2023-05-20T04:48:42;101410.03;;;10.37;100.00
3917;BME280;1973;50.518;7.318;2023-05-20T04:51:09;101410.50;;;10.41;100.00
3917;BME280;1973;50.518;7.318;2023-05-20T04:53:36;101415.19;;;10.47;100.00
3917;BME280;1973;50.518;7.318;2023-05-20T04:56:03;101408.69;;;10.54;100.00
3917;BME280;1973;50.518;7.318;2023-05-20T04:58:30;101413.19;;;10.62;100.00
3917;BME280;1973;50.518;7.318;2023-05-20T05:00:58;101403.47;;;10.66;100.00
3917;BME280;1973;50.518;7.318;2023-05-20T05:03:25;101404.38;;;10.73;100.00
3917;BME280;1973;50.518;7.318;2023-05-20T05:05:55;101401.06;;;10.84;100.00
3917;BME280;1973;50.518;7.318;2023-05-20T05:08:21;101399.84;;;10.93;100.00
3917;BME280;1973;50.518;7.318;2023-05-20T05:10:48;101396.91;;;11.01;100.00
3917;BME280;1973;50.518;7.318;2023-05-20T05:13:15;101390.19;;;11.10;100.00
3917;BME280;1973;50.518;7.318;2023-05-20T05:15:41;101384.28;;;11.20;100.00
3917;BME280;1973;50.518;7.318;2023-05-20T05:18:08;101376.69;;;11.29;100.00
3917;BME280;1973;50.518;7.318;2023-05-20T05:20:35;101381.81;;;11.38;100.00
3917;BME280;1973;50.518;7.318;2023-05-20T05:23:01;101381.00;;;11.44;100.00
3917;BME280;1973;50.518;7.318;2023-05-20T05:25:28;101377.22;;;11.52;100.00
3917;BME280;1973;50.518;7.318;2023-05-20T05:27:54;101384.63;;;11.58;100.00
3917;BME280;1973;50.518;7.318;2023-05-20T05:30:21;101387.41;;;11.64;100.00
3917;BME280;1973;50.518;7.318;2023-05-20T05:32:48;101380.00;;;11.65;100.00
3917;BME280;1973;50.518;7.318;2023-05-20T05:35:14;101391.69;;;11.67;100.00
3917;BME280;1973;50.518;7.318;2023-05-20T05:37:41;101388.50;;;11.70;100.00
3917;BME280;1973;50.518;7.318;2023-05-20T05:40:07;101398.09;;;11.74;100.00
3917;BME280;1973;50.518;7.318;2023-05-20T05:42:34;101394.28;;;11.82;100.00
3917;BME280;1973;50.518;7.318;2023-05-20T05:45:01;101386.03;;;11.88;100.00
3917;BME280;1973;50.518;7.318;2023-05-20T05:47:27;101391.34;;;11.96;100.00
3917;BME280;1973;50.518;7.318;2023-05-20T05:49:58;101387.97;;;12.01;100.00
3917;BME280;1973;50.518;7.318;2023-05-20T05:52:25;101382.44;;;12.07;100.00
3917;BME280;1973;50.518;7.318;2023-05-20T05:54:53;101387.09;;;12.13;100.00
3917;BME280;1973;50.518;7.318;2023-05-20T05:57:19;101380.31;;;12.23;100.00
3917;BME280;1973;50.518;7.318;2023-05-20T05:59:46;101375.84;;;12.35;100.00
3917;BME280;1973;50.518;7.318;2023-05-20T06:02:12;101380.72;;;12.46;100.00
3917;BME280;1973;50.518;7.318;2023-05-20T06:04:39;101379.03;;;12.58;100.00
3917;BME280;1973;50.518;7.318;2023-05-20T06:07:06;101380.72;;;12.65;100.00
3917;BME280;1973;50.518;7.318;2023-05-20T06:09:33;101377.94;;;12.72;100.00
3917;BME280;1973;50.518;7.318;2023-05-20T06:12:00;101365.59;;;12.81;100.00
3917;BME280;1973;50.518;7.318;2023-05-20T06:14:27;101362.38;;;12.91;100.00
3917;BME280;1973;50.518;7.318;2023-05-20T06:16:54;101353.19;;;13.03;100.00
3917;BME280;1973;50.518;7.318;2023-05-20T06:19:20;101357.63;;;13.18;100.00
3917;BME280;1973;50.518;7.318;2023-05-20T06:21:47;101351.22;;;13.30;100.00
3917;BME280;1973;50.518;7.318;2023-05-20T06:24:14;101343.50;;;13.39;100.00
3917;BME280;1973;50.518;7.318;2023-05-20T06:26:41;101351.94;;;13.50;100.00
3917;BME280;1973;50.518;7.318;2023-05-20T06:29:07;101350.66;;;13.53;100.00
3917;BME280;1973;50.518;7.318;2023-05-20T06:31:34;101351.03;;;13.63;100.00
3917;BME280;1973;50.518;7.318;2023-05-20T06:34:00;101350.78;;;13.64;100.00
3917;BME280;1973;50.518;7.318;2023-05-20T06:36:28;101345.03;;;13.66;100.00
3917;BME280;1973;50.518;7.318;2023-05-20T06:38:57;101348.16;;;13.76;100.00
3917;BME280;1973;50.518;7.318;2023-05-20T06:41:23;101337.44;;;13.86;100.00
3917;BME280;1973;50.518;7.318;2023-05-20T06:43:50;101332.03;;;13.98;100.00
3917;BME280;1973;50.518;7.318;2023-05-20T06:46:19;101326.91;;;14.01;100.00
3917;BME280;1973;50.518;7.318;2023-05-20T06:48:45;101332.34;;;14.14;100.00
3917;BME280;1973;50.518;7.318;2023-05-20T06:51:12;101326.91;;;14.26;100.00
3917;BME280;1973;50.518;7.318;2023-05-20T06:53:39;101323.66;;;14.36;100.00
3917;BME280;1973;50.518;7.318;2023-05-20T06:56:05;101329.50;;;14.46;100.00
3917;BME280;1973;50.518;7.318;2023-05-20T06:58:32;101324.75;;;14.53;100.00
3917;BME280;1973;50.518;7.318;2023-05-20T07:00:58;101318.22;;;14.66;100.00
3917;BME280;1973;50.518;7.318;2023-05-20T07:03:25;101311.53;;;14.73;100.00
3917;BME280;1973;50.518;7.318;2023-05-20T07:05:52;101305.22;;;14.84;100.00
3917;BME280;1973;50.518;7.318;2023-05-20T07:08:18;101303.91;;;14.87;100.00
3917;BME280;1973;50.518;7.318;2023-05-20T07:10:44;101304.06;;;14.92;100.00
3917;BME280;1973;50.518;7.318;2023-05-20T07:13:12;101306.38;;;14.95;100.00
3917;BME280;1973;50.518;7.318;2023-05-20T07:15:38;101303.78;;;15.00;100.00
3917;BME280;1973;50.518;7.318;2023-05-20T07:18:05;101295.19;;;15.01;100.00
3917;BME280;1973;50.518;7.318;2023-05-20T07:20:31;101296.66;;;15.04;100.00
3917;BME280;1973;50.518;7.318;2023-05-20T07:22:58;101307.44;;;15.12;100.00
3917;BME280;1973;50.518;7.318;2023-05-20T07:25:26;101306.13;;;15.15;100.00
3917;BME280;1973;50.518;7.318;2023-05-20T07:27:52;101294.56;;;15.18;100.00
3917;BME280;1973;50.518;7.318;2023-05-20T07:30:19;101291.78;;;15.18;100.00
3917;BME280;1973;50.518;7.318;2023-05-20T07:32:46;101285.31;;;15.24;100.00
3917;BME280;1973;50.518;7.318;2023-05-20T07:35:12;101281.59;;;15.30;100.00
3917;BME280;1973;50.518;7.318;2023-05-20T07:37:39;101274.25;;;15.35;100.00
3917;BME280;1973;50.518;7.318;2023-05-20T07:40:06;101276.81;;;15.37;100.00
3917;BME280;1973;50.518;7.318;2023-05-20T07:42:33;101278.16;;;15.46;100.00
3917;BME280;1973;50.518;7.318;2023-05-20T07:45:00;101268.47;;;15.55;100.00
3917;BME280;1973;50.518;7.318;2023-05-20T07:47:26;101276.41;;;15.63;100.00
3917;BME280;1973;50.518;7.318;2023-05-20T07:49:53;101269.09;;;15.69;100.00
3917;BME280;1973;50.518;7.318;2023-05-20T07:52:20;101263.69;;;15.74;100.00
3917;BME280;1973;50.518;7.318;2023-05-20T07:54:46;101261.28;;;15.77;100.00
3917;BME280;1973;50.518;7.318;2023-05-20T07:57:13;101258.13;;;15.85;100.00
3917;BME280;1973;50.518;7.318;2023-05-20T07:59:39;101252.00;;;15.95;100.00
3917;BME280;1973;50.518;7.318;2023-05-20T08:02:07;101251.38;;;16.04;100.00
3917;BME280;1973;50.518;7.318;2023-05-20T08:04:33;101244.41;;;16.14;100.00
3917;BME280;1973;50.518;7.318;2023-05-20T08:07:00;101248.88;;;16.15;100.00
3917;BME280;1973;50.518;7.318;2023-05-20T08:09:27;101243.56;;;16.25;100.00
3917;BME280;1973;50.518;7.318;2023-05-20T08:11:53;101246.56;;;16.35;100.00
3917;BME280;1973;50.518;7.318;2023-05-20T08:14:20;101248.00;;;16.49;100.00
3917;BME280;1973;50.518;7.318;2023-05-20T08:16:46;101238.31;;;16.63;100.00
3917;BME280;1973;50.518;7.318;2023-05-20T08:19:13;101237.22;;;16.76;100.00
3917;BME280;1973;50.518;7.318;2023-05-20T08:21:40;101229.94;;;16.86;100.00
3917;BME280;1973;50.518;7.318;2023-05-20T08:24:06;101233.19;;;16.95;100.00
3917;BME280;1973;50.518;7.318;2023-05-20T08:26:33;101224.19;;;17.04;100.00
3917;BME280;1973;50.518;7.318;2023-05-20T08:28:59;101232.00;;;17.19;100.00
3917;BME280;1973;50.518;7.318;2023-05-20T08:31:26;101225.34;;;17.20;100.00
3917;BME280;1973;50.518;7.318;2023-05-20T08:33:53;101233.03;;;17.30;100.00
3917;BME280;1973;50.518;7.318;2023-05-20T08:36:19;101230.13;;;17.36;100.00
3917;BME280;1973;50.518;7.318;2023-05-20T08:38:46;101219.59;;;17.55;100.00
3917;BME280;1973;50.518;7.318;2023-05-20T08:41:12;101208.41;;;17.67;100.00
3917;BME280;1973;50.518;7.318;2023-05-20T08:43:39;101217.19;;;17.75;100.00
3917;BME280;1973;50.518;7.318;2023-05-20T08:46:06;101213.72;;;17.85;100.00
3917;BME280;1973;50.518;7.318;2023-05-20T08:48:34;101208.31;;;17.95;100.00
3917;BME280;1973;50.518;7.318;2023-05-20T08:51:02;101211.59;;;18.09;100.00
3917;BME280;1973;50.518;7.318;2023-05-20T08:53:29;101207.09;;;18.24;99.58
3917;BME280;1973;50.518;7.318;2023-05-20T08:55:58;101202.84;;;18.38;98.39
3917;BME280;1973;50.518;7.318;2023-05-20T08:58:28;101201.56;;;18.46;96.97
3917;BME280;1973;50.518;7.318;2023-05-20T09:00:55;101193.69;;;18.60;96.39
3917;BME280;1973;50.518;7.318;2023-05-20T09:03:22;101188.06;;;18.76;95.65
3917;BME280;1973;50.518;7.318;2023-05-20T09:05:49;101192.06;;;18.85;94.79
3917;BME280;1973;50.518;7.318;2023-05-20T09:08:16;101195.47;;;18.92;94.04
3917;BME280;1973;50.518;7.318;2023-05-20T09:10:42;101193.09;;;19.01;94.48
3917;BME280;1973;50.518;7.318;2023-05-20T09:13:09;101185.66;;;19.12;93.60
3917;BME280;1973;50.518;7.318;2023-05-20T09:15:37;101184.09;;;19.21;91.77
3917;BME280;1973;50.518;7.318;2023-05-20T09:18:05;101188.63;;;19.27;90.59
3917;BME280;1973;50.518;7.318;2023-05-20T09:20:34;101183.97;;;19.37;90.34
3917;BME280;1973;50.518;7.318;2023-05-20T09:23:04;101180.44;;;19.42;89.74
3917;BME280;1973;50.518;7.318;2023-05-20T09:25:32;101176.00;;;19.46;88.50
3917;BME280;1973;50.518;7.318;2023-05-20T09:27:58;101168.78;;;19.50;87.97
3917;BME280;1973;50.518;7.318;2023-05-20T09:30:25;101169.94;;;19.54;87.71
3917;BME280;1973;50.518;7.318;2023-05-20T09:32:56;101168.31;;;19.63;85.12
3917;BME280;1973;50.518;7.318;2023-05-20T09:35:24;101167.28;;;19.74;86.48
3917;BME280;1973;50.518;7.318;2023-05-20T09:37:52;101173.25;;;19.83;88.84
3917;BME280;1973;50.518;7.318;2023-05-20T09:40:25;101173.91;;;19.95;88.80
3917;BME280;1973;50.518;7.318;2023-05-20T09:42:56;101168.94;;;20.07;90.25
3917;BME280;1973;50.518;7.318;2023-05-20T09:45:25;101166.53;;;20.21;87.06
3917;BME280;1973;50.518;7.318;2023-05-20T09:47:53;101167.44;;;20.31;83.33
3917;BME280;1973;50.518;7.318;2023-05-20T09:50:21;101169.50;;;20.46;83.95
3917;BME280;1973;50.518;7.318;2023-05-20T09:52:50;101164.22;;;20.60;82.85
3917;BME280;1973;50.518;7.318;2023-05-20T09:55:18;101158.97;;;20.68;82.66
3917;BME280;1973;50.518;7.318;2023-05-20T09:57:45;101153.66;;;20.77;83.34
3917;BME280;1973;50.518;7.318;2023-05-20T10:00:13;101164.63;;;20.83;81.05
3917;BME280;1973;50.518;7.318;2023-05-20T10:02:44;101142.47;;;20.77;78.39
3917;BME280;1973;50.518;7.318;2023-05-20T10:05:16;101148.28;;;20.60;77.06
3917;BME280;1973;50.518;7.318;2023-05-20T10:11:12;101137.75;;;20.87;74.04
3917;BME280;1973;50.518;7.318;2023-05-20T10:21:43;101128.88;;;21.11;75.62
3917;BME280;1973;50.518;7.318;2023-05-20T10:24:10;101124.69;;;21.33;77.96
3917;BME280;1973;50.518;7.318;2023-05-20T10:26:38;101125.81;;;21.48;80.10
3917;BME280;1973;50.518;7.318;2023-05-20T10:29:17;101121.63;;;21.60;73.80
3917;BME280;1973;50.518;7.318;2023-05-20T10:31:50;101107.63;;;21.65;74.42
3917;BME280;1973;50.518;7.318;2023-05-20T10:34:19;101116.56;;;21.72;73.22
3917;BME280;1973;50.518;7.318;2023-05-20T10:36:56;101110.94;;;21.77;68.62
3917;BME280;1973;50.518;7.318;2023-05-20T10:39:28;101108.47;;;21.91;70.61
3917;BME280;1973;50.518;7.318;2023-05-20T10:42:08;101109.25;;;21.92;62.64
3917;BME280;1973;50.518;7.318;2023-05-20T10:44:43;101114.34;;;21.95;61.77
3917;BME280;1973;50.518;7.318;2023-05-20T10:47:09;101115.16;;;21.95;69.33
3917;BME280;1973;50.518;7.318;2023-05-20T10:49:45;101128.63;;;21.93;68.95
3917;BME280;1973;50.518;7.318;2023-05-20T10:52:13;101128.88;;;21.81;69.47
3917;BME280;1973;50.518;7.318;2023-05-20T10:54:56;101127.22;;;21.75;65.70
3917;BME280;1973;50.518;7.318;2023-05-20T10:57:25;101117.69;;;21.66;67.47
3917;BME280;1973;50.518;7.318;2023-05-20T10:59:52;101126.94;;;21.62;68.35
3917;BME280;1973;50.518;7.318;2023-05-20T11:02:19;101124.44;;;21.50;69.05
3917;BME280;1973;50.518;7.318;2023-05-20T11:04:52;101128.34;;;21.49;69.46
3917;BME280;1973;50.518;7.318;2023-05-20T11:07:29;101119.09;;;21.64;67.78
3917;BME280;1973;50.518;7.318;2023-05-20T11:09:57;101135.03;;;21.89;69.45
3917;BME280;1973;50.518;7.318;2023-05-20T11:12:26;101113.47;;;22.09;70.62
3917;BME280;1973;50.518;7.318;2023-05-20T11:14:53;101116.50;;;22.23;69.44
3917;BME280;1973;50.518;7.318;2023-05-20T11:17:19;101108.84;;;22.44;69.96
3917;BME280;1973;50.518;7.318;2023-05-20T11:19:47;101114.91;;;22.66;66.53
3917;BME280;1973;50.518;7.318;2023-05-20T11:22:22;101106.78;;;22.69;65.39
3917;BME280;1973;50.518;7.318;2023-05-20T11:24:49;101117.31;;;22.98;65.33
3917;BME280;1973;50.518;7.318;2023-05-20T11:27:15;101104.13;;;22.93;63.53
3917;BME280;1973;50.518;7.318;2023-05-20T11:29:42;101097.94;;;22.96;62.10
3917;BME280;1973;50.518;7.318;2023-05-20T11:32:08;101093.91;;;23.07;63.86
3917;BME280;1973;50.518;7.318;2023-05-20T11:34:36;101106.00;;;23.08;61.98
3917;BME280;1973;50.518;7.318;2023-05-20T11:37:07;101092.69;;;23.23;59.03
3917;BME280;1973;50.518;7.318;2023-05-20T11:39:35;101092.25;;;23.40;60.06
3917;BME280;1973;50.518;7.318;2023-05-20T11:42:02;101081.72;;;23.61;60.34
3917;BME280;1973;50.518;7.318;2023-05-20T11:44:28;101088.56;;;23.50;59.42
3917;BME280;1973;50.518;7.318;2023-05-20T11:47:00;101093.09;;;23.41;57.00
3917;BME280;1973;50.518;7.318;2023-05-20T11:49:27;101090.75;;;23.19;58.38
3917;BME280;1973;50.518;7.318;2023-05-20T11:51:53;101103.16;;;23.13;59.92
3917;BME280;1973;50.518;7.318;2023-05-20T11:54:21;101094.59;;;22.94;59.90
3917;BME280;1973;50.518;7.318;2023-05-20T11:56:49;101099.22;;;22.65;59.38
3917;BME280;1973;50.518;7.318;2023-05-20T11:59:16;101094.25;;;22.47;59.81
3917;BME280;1973;50.518;7.318;2023-05-20T12:01:42;101092.31;;;22.32;59.68
3917;BME280;1973;50.518;7.318;2023-05-20T12:04:09;101086.78;;;22.12;61.14
3917;BME280;1973;50.518;7.318;2023-05-20T12:06:36;101092.13;;;22.08;62.06
3917;BME280;1973;50.518;7.318;2023-05-20T12:09:04;101098.63;;;21.99;62.82
3917;BME280;1973;50.518;7.318;2023-05-20T12:11:36;101091.34;;;21.93;63.83
3917;BME280;1973;50.518;7.318;2023-05-20T12:14:05;101096.38;;;21.85;64.61
3917;BME280;1973;50.518;7.318;2023-05-20T12:16:32;101096.34;;;21.80;64.19
3917;BME280;1973;50.518;7.318;2023-05-20T12:18:59;101090.78;;;21.75;65.73
3917;BME280;1973;50.518;7.318;2023-05-20T12:21:30;101095.28;;;21.71;64.05
3917;BME280;1973;50.518;7.318;2023-05-20T12:24:00;101085.75;;;21.72;64.44
3917;BME280;1973;50.518;7.318;2023-05-20T12:26:27;101081.78;;;21.73;67.04
3917;BME280;1973;50.518;7.318;2023-05-20T12:28:54;101078.16;;;21.73;66.20
3917;BME280;1973;50.518;7.318;2023-05-20T12:31:21;101073.38;;;21.73;65.26
3917;BME280;1973;50.518;7.318;2023-05-20T12:33:48;101076.75;;;21.75;64.14
3917;BME280;1973;50.518;7.318;2023-05-20T12:36:14;101066.66;;;21.74;65.68
3917;BME280;1973;50.518;7.318;2023-05-20T12:38:41;101068.09;;;21.72;65.39
3917;BME280;1973;50.518;7.318;2023-05-20T12:41:08;101062.19;;;21.68;66.18
3917;BME280;1973;50.518;7.318;2023-05-20T12:43:34;101072.84;;;21.71;65.99
3917;BME280;1973;50.518;7.318;2023-05-20T12:46:03;101062.16;;;21.73;65.70
3917;BME280;1973;50.518;7.318;2023-05-20T12:48:29;101058.25;;;21.74;65.31
3917;BME280;1973;50.518;7.318;2023-05-20T12:50:56;101058.25;;;21.74;65.09
3917;BME280;1973;50.518;7.318;2023-05-20T12:53:22;101052.09;;;21.67;64.77
3917;BME280;1973;50.518;7.318;2023-05-20T12:55:49;101048.75;;;21.65;64.49
3917;BME280;1973;50.518;7.318;2023-05-20T12:58:15;101045.97;;;21.65;63.94
3917;BME280;1973;50.518;7.318;2023-05-20T13:00:42;101043.44;;;21.69;64.42
3917;BME280;1973;50.518;7.318;2023-05-20T13:03:08;101051.53;;;21.70;64.27
3917;BME280;1973;50.518;7.318;2023-05-20T13:05:35;101047.03;;;21.74;63.07
3917;BME280;1973;50.518;7.318;2023-05-20T13:08:01;101038.06;;;21.82;62.31
3917;BME280;1973;50.518;7.318;2023-05-20T13:10:28;101040.00;;;21.92;64.04
3917;BME280;1973;50.518;7.318;2023-05-20T13:12:55;101040.84;;;21.98;62.43
3917;BME280;1973;50.518;7.318;2023-05-20T13:15:21;101034.41;;;21.97;61.58
3917;BME280;1973;50.518;7.318;2023-05-20T13:17:48;101025.16;;;21.97;61.25
3917;BME280;1973;50.518;7.318;2023-05-20T13:20:15;101020.31;;;22.12;61.44
3917;BME280;1973;50.518;7.318;2023-05-20T13:22:45;101026.97;;;22.26;62.45